Wetterdaten: Woche 12.08.13 - 18.08.13 (KW33)
Datum Zeit Temperatur Luftfeuchte Luftdruck Niederschlag Windrichtung Sonnenschein Solar Wind
12.08.2013 00:00 13,6 C 91 % 1016,8 hPa 0,0 l/m N 0,00 h 0 W/m 0,9 km/h (0 Bft)
12.08.2013 01:00 13,2 C 92 % 1016,9 hPa 0,0 l/m N 0,00 h 0 W/m 0,3 km/h (0 Bft)
12.08.2013 02:00 13,4 C 93 % 1016,6 hPa 0,0 l/m N 0,00 h 0 W/m 0,5 km/h (0 Bft)
12.08.2013 03:00 13,4 C 91 % 1016,5 hPa 0,0 l/m N-NW 0,00 h 0 W/m 6,3 km/h (2 Bft)
12.08.2013 04:00 13,0 C 92 % 1016,4 hPa 0,0 l/m N-NW 0,00 h 0 W/m 4,4 km/h (1 Bft)
12.08.2013 05:00 12,1 C 94 % 1016,2 hPa 0,0 l/m N 0,00 h 0 W/m 0,5 km/h (0 Bft)
12.08.2013 06:00 12,0 C 96 % 1016,2 hPa 0,0 l/m N 0,00 h 11 W/m 0,1 km/h (0 Bft)
12.08.2013 07:00 12,6 C 96 % 1016,1 hPa 0,0 l/m N 0,00 h 47 W/m 0,9 km/h (0 Bft)
12.08.2013 08:00 14,5 C 91 % 1016,1 hPa 0,0 l/m N 0,67 h 242 W/m 1,6 km/h (1 Bft)
12.08.2013 09:00 17,4 C 81 % 1016,0 hPa 0,0 l/m NW 1,00 h 436 W/m 3,2 km/h (1 Bft)
12.08.2013 10:00 19,6 C 71 % 1015,5 hPa 0,0 l/m W-SW 0,92 h 560 W/m 6,7 km/h (2 Bft)
12.08.2013 11:00 20,5 C 64 % 1015,1 hPa 0,0 l/m W-SW 0,67 h 561 W/m 7,9 km/h (2 Bft)
12.08.2013 12:00 21,4 C 61 % 1014,6 hPa 0,0 l/m W-SW 0,50 h 525 W/m 7,3 km/h (2 Bft)
12.08.2013 13:00 21,6 C 58 % 1014,1 hPa 0,0 l/m W-NW 0,17 h 316 W/m 9,4 km/h (2 Bft)
12.08.2013 14:00 22,9 C 54 % 1013,9 hPa 0,0 l/m W-NW 0,58 h 587 W/m 12,9 km/h (3 Bft)
12.08.2013 15:00 23,8 C 53 % 1013,5 hPa 0,0 l/m W 0,75 h 654 W/m 11,8 km/h (2 Bft)
12.08.2013 16:00 23,4 C 54 % 1013,0 hPa 0,0 l/m NW 0,25 h 298 W/m 7,6 km/h (2 Bft)
12.08.2013 17:00 23,0 C 56 % 1012,7 hPa 0,0 l/m NW 0,33 h 286 W/m 10,2 km/h (2 Bft)
12.08.2013 18:00 23,2 C 57 % 1012,7 hPa 0,0 l/m N-NW 0,83 h 329 W/m 9,4 km/h (2 Bft)
12.08.2013 19:00 21,8 C 61 % 1012,5 hPa 0,0 l/m N-NO 0,50 h 118 W/m 7,9 km/h (2 Bft)
12.08.2013 20:00 18,7 C 77 % 1012,1 hPa 0,0 l/m N 0,00 h 13 W/m 0,0 km/h (0 Bft)
12.08.2013 21:00 16,5 C 86 % 1012,3 hPa 0,0 l/m N 0,00 h 0 W/m 0,0 km/h (0 Bft)
12.08.2013 22:00 16,4 C 85 % 1012,6 hPa 0,0 l/m N-NW 0,00 h 0 W/m 1,2 km/h (1 Bft)
12.08.2013 23:00 16,9 C 80 % 1012,7 hPa 0,0 l/m N-NW 0,00 h 0 W/m 9,5 km/h (2 Bft)
13.08.2013 00:00 15,0 C 88 % 1013,0 hPa 0,0 l/m N 0,00 h 0 W/m 0,9 km/h (0 Bft)
13.08.2013 01:00 14,4 C 91 % 1013,5 hPa 0,0 l/m N-NW 0,00 h 0 W/m 4,0 km/h (1 Bft)
13.08.2013 02:00 13,8 C 93 % 1013,5 hPa 0,0 l/m N 0,00 h 0 W/m 0,9 km/h (0 Bft)
13.08.2013 03:00 13,7 C 95 % 1014,0 hPa 0,0 l/m N 0,00 h 0 W/m 0,8 km/h (0 Bft)
13.08.2013 04:00 14,2 C 95 % 1014,2 hPa 0,2 l/m N 0,00 h 0 W/m 0,8 km/h (0 Bft)
13.08.2013 05:00 14,3 C 96 % 1014,3 hPa 0,0 l/m N 0,00 h 0 W/m 0,1 km/h (0 Bft)
13.08.2013 06:00 14,1 C 96 % 1014,8 hPa 0,0 l/m N-NW 0,00 h 11 W/m 1,2 km/h (1 Bft)
13.08.2013 07:00 14,4 C 92 % 1015,4 hPa 0,0 l/m W 0,00 h 53 W/m 6,7 km/h (2 Bft)
13.08.2013 08:00 14,8 C 86 % 1016,2 hPa 0,0 l/m W-NW 0,25 h 163 W/m 9,9 km/h (2 Bft)
13.08.2013 09:00 16,3 C 74 % 1016,6 hPa 0,0 l/m W-NW 0,75 h 358 W/m 12,2 km/h (2 Bft)
13.08.2013 10:00 17,5 C 65 % 1017,0 hPa 0,0 l/m N-NW 0,75 h 490 W/m 15,0 km/h (3 Bft)
13.08.2013 11:00 18,1 C 61 % 1017,2 hPa 0,0 l/m N-NW 0,75 h 630 W/m 15,4 km/h (3 Bft)
13.08.2013 12:00 19,6 C 56 % 1017,2 hPa 0,0 l/m W-SW 0,92 h 828 W/m 13,7 km/h (3 Bft)
13.08.2013 13:00 20,7 C 52 % 1016,9 hPa 0,0 l/m W-NW 0,75 h 738 W/m 14,0 km/h (3 Bft)
13.08.2013 14:00 20,5 C 53 % 1016,8 hPa 0,0 l/m W 0,42 h 477 W/m 12,2 km/h (2 Bft)
13.08.2013 15:00 21,4 C 53 % 1016,7 hPa 0,0 l/m N-NO 0,83 h 608 W/m 16,1 km/h (3 Bft)
13.08.2013 16:00 21,2 C 53 % 1016,5 hPa 0,0 l/m N-NO 0,92 h 596 W/m 14,6 km/h (3 Bft)
13.08.2013 17:00 21,1 C 49 % 1016,5 hPa 0,0 l/m N-NO 1,00 h 497 W/m 16,6 km/h (3 Bft)
13.08.2013 18:00 19,2 C 55 % 1016,8 hPa 0,0 l/m N-NO 0,00 h 125 W/m 15,4 km/h (3 Bft)
13.08.2013 19:00 17,7 C 57 % 1017,3 hPa 0,0 l/m N 0,00 h 53 W/m 9,9 km/h (2 Bft)
13.08.2013 20:00 16,5 C 62 % 1017,8 hPa 0,0 l/m N 0,00 h 10 W/m 5,3 km/h (1 Bft)
13.08.2013 21:00 15,6 C 66 % 1018,5 hPa 0,0 l/m N 0,00 h 0 W/m 6,8 km/h (2 Bft)
13.08.2013 22:00 15,2 C 69 % 1019,0 hPa 0,0 l/m N 0,00 h 0 W/m 3,6 km/h (1 Bft)
13.08.2013 23:00 13,7 C 78 % 1019,3 hPa 0,0 l/m N 0,00 h 0 W/m 0,3 km/h (0 Bft)
14.08.2013 00:00 12,4 C 83 % 1019,8 hPa 0,0 l/m N 0,00 h 0 W/m 0,5 km/h (0 Bft)
14.08.2013 01:00 11,6 C 85 % 1019,7 hPa 0,0 l/m N 0,00 h 0 W/m 1,2 km/h (1 Bft)
14.08.2013 02:00 11,0 C 88 % 1019,5 hPa 0,0 l/m N 0,00 h 0 W/m 0,5 km/h (0 Bft)
14.08.2013 03:00 10,3 C 89 % 1019,5 hPa 0,0 l/m N 0,00 h 0 W/m 0,4 km/h (0 Bft)
14.08.2013 04:00 10,0 C 92 % 1019,5 hPa 0,0 l/m N 0,00 h 0 W/m 0,0 km/h (0 Bft)
14.08.2013 05:00 9,7 C 93 % 1019,6 hPa 0,0 l/m N 0,00 h 0 W/m 0,0 km/h (0 Bft)
14.08.2013 06:00 9,1 C 94 % 1019,8 hPa 0,0 l/m N 0,00 h 14 W/m 1,2 km/h (1 Bft)
14.08.2013 07:00 10,1 C 91 % 1020,1 hPa 0,0 l/m N 0,17 h 84 W/m 2,8 km/h (1 Bft)
14.08.2013 08:00 12,5 C 84 % 1020,3 hPa 0,0 l/m N 1,00 h 257 W/m 5,2 km/h (1 Bft)
14.08.2013 09:00 14,9 C 76 % 1020,2 hPa 0,0 l/m O-NO 1,00 h 427 W/m 7,1 km/h (2 Bft)
14.08.2013 10:00 16,2 C 69 % 1020,2 hPa 0,0 l/m NO 0,75 h 486 W/m 7,9 km/h (2 Bft)
14.08.2013 11:00 16,8 C 63 % 1020,5 hPa 0,0 l/m NO 0,33 h 337 W/m 7,5 km/h (2 Bft)
14.08.2013 12:00 18,9 C 54 % 1020,0 hPa 0,0 l/m O-SO 1,00 h 854 W/m 13,7 km/h (3 Bft)
14.08.2013 13:00 18,3 C 51 % 1020,1 hPa 0,0 l/m N-NO 0,00 h 226 W/m 11,7 km/h (2 Bft)
14.08.2013 14:00 18,8 C 52 % 1020,4 hPa 0,0 l/m NO 0,33 h 385 W/m 12,4 km/h (3 Bft)
14.08.2013 15:00 19,4 C 54 % 1020,3 hPa 0,0 l/m N 0,67 h 573 W/m 17,6 km/h (3 Bft)
14.08.2013 16:00 19,7 C 52 % 1020,2 hPa 0,0 l/m N-NO 0,92 h 574 W/m 15,0 km/h (3 Bft)
14.08.2013 17:00 19,7 C 51 % 1020,3 hPa 0,0 l/m N-NO 0,92 h 463 W/m 14,0 km/h (3 Bft)
14.08.2013 18:00 19,2 C 52 % 1020,3 hPa 0,0 l/m NO 0,83 h 303 W/m 13,7 km/h (3 Bft)
14.08.2013 19:00 17,4 C 61 % 1020,5 hPa 0,0 l/m N-NO 0,08 h 46 W/m 8,3 km/h (2 Bft)
14.08.2013 20:00 16,4 C 65 % 1020,9 hPa 0,0 l/m NO 0,08 h 12 W/m 5,7 km/h (1 Bft)
14.08.2013 21:00 16,0 C 67 % 1021,5 hPa 0,0 l/m N 0,00 h 0 W/m 2,4 km/h (1 Bft)
14.08.2013 22:00 15,1 C 73 % 1021,9 hPa 0,0 l/m NO 0,00 h 0 W/m 4,4 km/h (1 Bft)
14.08.2013 23:00 14,8 C 74 % 1022,1 hPa 0,0 l/m NO 0,00 h 0 W/m 5,1 km/h (1 Bft)
15.08.2013 00:00 14,4 C 75 % 1022,0 hPa 0,0 l/m N 0,00 h 0 W/m 2,8 km/h (1 Bft)
15.08.2013 01:00 13,6 C 78 % 1021,7 hPa 0,0 l/m N 0,00 h 0 W/m 1,2 km/h (1 Bft)
15.08.2013 02:00 12,5 C 83 % 1021,3 hPa 0,0 l/m N 0,00 h 0 W/m 0,4 km/h (0 Bft)
15.08.2013 03:00 11,4 C 87 % 1021,1 hPa 0,0 l/m N 0,00 h 0 W/m 1,1 km/h (0 Bft)
15.08.2013 04:00 10,6 C 89 % 1020,8 hPa 0,0 l/m N 0,00 h 0 W/m 0,9 km/h (0 Bft)
15.08.2013 05:00 10,5 C 89 % 1021,0 hPa 0,0 l/m N-NW 0,00 h 0 W/m 4,7 km/h (1 Bft)
15.08.2013 06:00 10,2 C 91 % 1021,4 hPa 0,0 l/m N-NW 0,00 h 12 W/m 6,4 km/h (2 Bft)
15.08.2013 07:00 11,1 C 88 % 1021,6 hPa 0,0 l/m N-NW 0,17 h 89 W/m 6,7 km/h (2 Bft)
15.08.2013 08:00 13,1 C 81 % 1021,9 hPa 0,0 l/m N-NW 1,00 h 253 W/m 7,0 km/h (2 Bft)
15.08.2013 09:00 15,5 C 72 % 1021,7 hPa 0,0 l/m NO 1,00 h 407 W/m 9,9 km/h (2 Bft)
15.08.2013 10:00 17,9 C 59 % 1021,5 hPa 0,0 l/m O 1,00 h 548 W/m 14,1 km/h (3 Bft)
15.08.2013 11:00 19,4 C 52 % 1021,2 hPa 0,0 l/m O-NO 1,00 h 654 W/m 13,8 km/h (3 Bft)
15.08.2013 12:00 20,5 C 48 % 1020,6 hPa 0,0 l/m O-NO 1,00 h 784 W/m 16,5 km/h (3 Bft)
15.08.2013 13:00 21,3 C 46 % 1020,0 hPa 0,0 l/m O-NO 0,92 h 821 W/m 14,6 km/h (3 Bft)
15.08.2013 14:00 22,1 C 44 % 1019,6 hPa 0,0 l/m O-NO 1,00 h 780 W/m 15,3 km/h (3 Bft)
15.08.2013 15:00 22,0 C 43 % 1019,2 hPa 0,0 l/m NO 0,92 h 606 W/m 11,7 km/h (2 Bft)
15.08.2013 16:00 22,9 C 41 % 1019,0 hPa 0,0 l/m O-NO 1,00 h 634 W/m 12,1 km/h (2 Bft)
15.08.2013 17:00 23,0 C 42 % 1018,7 hPa 0,0 l/m O-NO 1,00 h 488 W/m 13,3 km/h (3 Bft)
15.08.2013 18:00 22,3 C 44 % 1018,6 hPa 0,0 l/m NO 1,00 h 316 W/m 11,7 km/h (2 Bft)
15.08.2013 19:00 21,1 C 48 % 1018,9 hPa 0,0 l/m NO 0,58 h 104 W/m 11,4 km/h (2 Bft)
15.08.2013 20:00 18,5 C 58 % 1019,2 hPa 0,0 l/m NO 0,00 h 11 W/m 4,4 km/h (1 Bft)
15.08.2013 21:00 15,5 C 71 % 1019,5 hPa 0,0 l/m N 0,00 h 0 W/m 0,5 km/h (0 Bft)
15.08.2013 22:00 14,2 C 76 % 1019,6 hPa 0,0 l/m N 0,00 h 0 W/m 0,0 km/h (0 Bft)
15.08.2013 23:00 13,3 C 79 % 1019,5 hPa 0,0 l/m N 0,00 h 0 W/m 0,4 km/h (0 Bft)
16.08.2013 00:00 12,8 C 77 % 1019,3 hPa 0,0 l/m N 0,00 h 0 W/m 2,3 km/h (1 Bft)
16.08.2013 01:00 12,4 C 76 % 1019,2 hPa 0,0 l/m N 0,00 h 0 W/m 1,6 km/h (1 Bft)
16.08.2013 02:00 12,2 C 77 % 1018,9 hPa 0,0 l/m N 0,00 h 0 W/m 1,6 km/h (1 Bft)
16.08.2013 03:00 11,9 C 78 % 1018,7 hPa 0,0 l/m N-NO 0,00 h 0 W/m 4,5 km/h (1 Bft)
16.08.2013 04:00 11,3 C 81 % 1018,6 hPa 0,0 l/m N-NW 0,00 h 0 W/m 5,9 km/h (2 Bft)
16.08.2013 05:00 10,4 C 86 % 1018,6 hPa 0,0 l/m N 0,00 h 0 W/m 0,5 km/h (0 Bft)
16.08.2013 06:00 9,9 C 89 % 1018,8 hPa 0,0 l/m N 0,00 h 12 W/m 1,6 km/h (1 Bft)
16.08.2013 07:00 11,4 C 83 % 1019,0 hPa 0,0 l/m N 0,25 h 88 W/m 2,7 km/h (1 Bft)
16.08.2013 08:00 13,8 C 75 % 1018,8 hPa 0,0 l/m N 1,00 h 265 W/m 1,9 km/h (1 Bft)
16.08.2013 09:00 16,6 C 68 % 1018,4 hPa 0,0 l/m N 1,00 h 432 W/m 2,1 km/h (1 Bft)
16.08.2013 10:00 18,9 C 64 % 1017,9 hPa 0,0 l/m N-NW 1,00 h 588 W/m 4,7 km/h (1 Bft)
16.08.2013 11:00 20,7 C 60 % 1017,4 hPa 0,0 l/m S 1,00 h 704 W/m 5,1 km/h (1 Bft)
16.08.2013 12:00 22,5 C 55 % 1017,0 hPa 0,0 l/m S-SW 1,00 h 798 W/m 7,6 km/h (2 Bft)
16.08.2013 13:00 24,1 C 48 % 1016,5 hPa 0,0 l/m S-SW 1,00 h 834 W/m 8,4 km/h (2 Bft)
16.08.2013 14:00 25,6 C 42 % 1016,0 hPa 0,0 l/m SO 1,00 h 810 W/m 7,8 km/h (2 Bft)
16.08.2013 15:00 26,5 C 41 % 1015,5 hPa 0,0 l/m N 1,00 h 744 W/m 8,4 km/h (2 Bft)
16.08.2013 16:00 27,1 C 37 % 1015,1 hPa 0,0 l/m SW 1,00 h 633 W/m 8,7 km/h (2 Bft)
16.08.2013 17:00 26,9 C 40 % 1014,7 hPa 0,0 l/m SW 1,00 h 485 W/m 8,6 km/h (2 Bft)
16.08.2013 18:00 26,4 C 39 % 1014,4 hPa 0,0 l/m S-SW 1,00 h 310 W/m 8,6 km/h (2 Bft)
16.08.2013 19:00 23,9 C 48 % 1014,5 hPa 0,0 l/m S 0,50 h 97 W/m 2,7 km/h (1 Bft)
16.08.2013 20:00 19,6 C 67 % 1014,8 hPa 0,0 l/m N 0,00 h 10 W/m 0,0 km/h (0 Bft)
16.08.2013 21:00 17,6 C 72 % 1015,1 hPa 0,0 l/m N 0,00 h 0 W/m 0,0 km/h (0 Bft)
16.08.2013 22:00 16,5 C 76 % 1015,2 hPa 0,0 l/m N 0,00 h 0 W/m 0,0 km/h (0 Bft)
16.08.2013 23:00 15,2 C 81 % 1015,4 hPa 0,0 l/m N 0,00 h 0 W/m 0,0 km/h (0 Bft)
17.08.2013 00:00 14,5 C 84 % 1015,5 hPa 0,0 l/m N 0,00 h 0 W/m 0,0 km/h (0 Bft)
17.08.2013 01:00 13,8 C 87 % 1015,3 hPa 0,0 l/m N 0,00 h 0 W/m 0,0 km/h (0 Bft)
17.08.2013 02:00 13,2 C 89 % 1015,3 hPa 0,0 l/m N 0,00 h 0 W/m 0,1 km/h (0 Bft)
17.08.2013 03:00 12,4 C 92 % 1015,4 hPa 0,0 l/m N 0,00 h 0 W/m 0,0 km/h (0 Bft)
17.08.2013 04:00 12,4 C 93 % 1015,4 hPa 0,0 l/m N 0,00 h 0 W/m 0,0 km/h (0 Bft)
17.08.2013 05:00 12,7 C 93 % 1015,4 hPa 0,0 l/m N 0,00 h 0 W/m 0,0 km/h (0 Bft)
17.08.2013 06:00 12,5 C 93 % 1015,6 hPa 0,0 l/m N 0,00 h 13 W/m 0,0 km/h (0 Bft)
17.08.2013 07:00 13,6 C 92 % 1015,8 hPa 0,0 l/m N 0,00 h 51 W/m 0,7 km/h (0 Bft)
17.08.2013 08:00 16,3 C 89 % 1015,9 hPa 0,0 l/m S 0,50 h 182 W/m 2,7 km/h (1 Bft)
17.08.2013 09:00 20,0 C 80 % 1015,6 hPa 0,0 l/m S-SW 0,92 h 401 W/m 7,4 km/h (2 Bft)
17.08.2013 10:00 22,4 C 73 % 1015,4 hPa 0,0 l/m S-SW 1,00 h 576 W/m 11,0 km/h (2 Bft)
17.08.2013 11:00 24,2 C 59 % 1015,2 hPa 0,0 l/m W 1,00 h 699 W/m 17,0 km/h (3 Bft)
17.08.2013 12:00 25,0 C 51 % 1014,9 hPa 0,0 l/m W-SW 0,83 h 685 W/m 14,5 km/h (3 Bft)
17.08.2013 13:00 26,0 C 47 % 1014,4 hPa 0,0 l/m SW 1,00 h 794 W/m 15,7 km/h (3 Bft)
17.08.2013 14:00 26,9 C 42 % 1014,0 hPa 0,0 l/m SW 0,92 h 746 W/m 15,8 km/h (3 Bft)
17.08.2013 15:00 27,8 C 37 % 1013,6 hPa 0,0 l/m W-SW 1,00 h 727 W/m 13,8 km/h (3 Bft)
17.08.2013 16:00 28,3 C 37 % 1013,2 hPa 0,0 l/m W-SW 1,00 h 629 W/m 13,6 km/h (3 Bft)
17.08.2013 17:00 28,1 C 37 % 1013,0 hPa 0,0 l/m W 1,00 h 484 W/m 14,0 km/h (3 Bft)
17.08.2013 18:00 27,1 C 41 % 1012,9 hPa 0,0 l/m SW 1,00 h 306 W/m 11,7 km/h (2 Bft)
17.08.2013 19:00 25,0 C 48 % 1013,1 hPa 0,0 l/m W-SW 0,50 h 91 W/m 7,9 km/h (2 Bft)
17.08.2013 20:00 22,4 C 56 % 1013,5 hPa 0,0 l/m W-SW 0,00 h 8 W/m 5,5 km/h (1 Bft)
17.08.2013 21:00 20,1 C 65 % 1013,9 hPa 0,0 l/m N 0,00 h 0 W/m 2,1 km/h (1 Bft)
17.08.2013 22:00 18,1 C 75 % 1013,9 hPa 0,0 l/m N 0,00 h 0 W/m 0,1 km/h (0 Bft)
17.08.2013 23:00 16,9 C 80 % 1013,8 hPa 0,0 l/m N 0,00 h 0 W/m 0,0 km/h (0 Bft)
18.08.2013 00:00 16,0 C 84 % 1013,8 hPa 0,0 l/m N 0,00 h 0 W/m 0,0 km/h (0 Bft)
18.08.2013 01:00 15,3 C 87 % 1013,9 hPa 0,0 l/m N 0,00 h 0 W/m 0,3 km/h (0 Bft)
18.08.2013 02:00 14,6 C 90 % 1013,9 hPa 0,0 l/m N 0,00 h 0 W/m 0,0 km/h (0 Bft)
18.08.2013 03:00 14,1 C 92 % 1014,0 hPa 0,0 l/m N 0,00 h 0 W/m 0,0 km/h (0 Bft)
18.08.2013 04:00 13,4 C 94 % 1014,1 hPa 0,0 l/m N 0,00 h 0 W/m 0,0 km/h (0 Bft)
18.08.2013 05:00 13,2 C 95 % 1014,0 hPa 0,0 l/m N 0,00 h 0 W/m 0,0 km/h (0 Bft)
18.08.2013 06:00 13,2 C 95 % 1014,3 hPa 0,0 l/m N 0,00 h 14 W/m 0,0 km/h (0 Bft)
18.08.2013 07:00 14,0 C 94 % 1014,5 hPa 0,0 l/m N 0,00 h 76 W/m 0,0 km/h (0 Bft)
18.08.2013 08:00 16,9 C 89 % 1014,4 hPa 0,0 l/m W-SW 0,83 h 237 W/m 1,5 km/h (1 Bft)
18.08.2013 09:00 20,4 C 77 % 1014,3 hPa 0,0 l/m SW 0,67 h 308 W/m 10,1 km/h (2 Bft)
18.08.2013 10:00 23,0 C 67 % 1014,4 hPa 0,0 l/m S-SW 0,75 h 442 W/m 7,3 km/h (2 Bft)
18.08.2013 11:00 23,7 C 60 % 1014,2 hPa 0,0 l/m W 0,83 h 486 W/m 10,1 km/h (2 Bft)
18.08.2013 12:00 24,8 C 55 % 1013,7 hPa 0,0 l/m W 0,75 h 568 W/m 12,1 km/h (2 Bft)
18.08.2013 13:00 25,6 C 53 % 1013,5 hPa 0,0 l/m W 0,83 h 712 W/m 15,8 km/h (3 Bft)
18.08.2013 14:00 27,0 C 49 % 1013,0 hPa 0,0 l/m W-SW 1,00 h 771 W/m 16,0 km/h (3 Bft)
18.08.2013 15:00 27,5 C 45 % 1012,7 hPa 0,0 l/m W-SW 0,67 h 523 W/m 15,2 km/h (3 Bft)
18.08.2013 16:00 26,8 C 45 % 1012,5 hPa 0,0 l/m W-NW 0,50 h 437 W/m 14,6 km/h (3 Bft)
18.08.2013 17:00 27,0 C 44 % 1012,6 hPa 0,0 l/m W 0,58 h 288 W/m 17,4 km/h (3 Bft)
18.08.2013 18:00 25,0 C 53 % 1012,8 hPa 0,0 l/m N-NO 0,50 h 209 W/m 13,6 km/h (3 Bft)
18.08.2013 19:00 24,1 C 56 % 1013,1 hPa 0,0 l/m N-NO 0,25 h 68 W/m 8,3 km/h (2 Bft)
18.08.2013 20:00 21,5 C 68 % 1013,6 hPa 0,0 l/m N 0,00 h 9 W/m 0,0 km/h (0 Bft)
18.08.2013 21:00 20,1 C 73 % 1014,3 hPa 0,0 l/m N 0,00 h 0 W/m 0,0 km/h (0 Bft)
18.08.2013 22:00 20,2 C 70 % 1014,7 hPa 0,0 l/m N-NO 0,00 h 0 W/m 4,0 km/h (1 Bft)
18.08.2013 23:00 19,5 C 75 % 1014,6 hPa 0,0 l/m N-NO 0,00 h 0 W/m 2,7 km/h (1 Bft)
Min-Datum _ 14.08.13 17.08.13 12.08.13 - - - - 12.08.13
_ Min-Zeit 06:35 15:20 20:35 - - - - 00:00
Minimum _ 8,8 C 33 % 1012,0 hPa - - - - 0,0 km/h (0 Bft)
Max-Datum _ 17.08.13 12.08.13 14.08.13 13.08.13 - 12.08.13 14.08.13 14.08.13
_ Max-Zeit 16:20 05:50 23:55 04:30 - 08:20 15:30 14:45
Maximum _ 28,6 C 96 % 1022,2 hPa 0,2 l/m - 0,08 h 1027 W/m 25,7 km/h
NO (4 Bft)
Durchschnitt _ 17,8 C 70 % 1016,7 hPa #0,2 l/m N-NO #64:45 h 386 W/m 6,3 km/h (2 Bft)